createdAt,value
2022-08-03T00:01:57.154Z,21.79
2022-08-03T00:04:53.087Z,21.78
2022-08-03T00:07:41.395Z,21.79
2022-08-03T00:10:22.076Z,21.79
2022-08-03T00:13:03.831Z,21.77
2022-08-03T00:15:51.062Z,21.78
2022-08-03T00:18:39.315Z,21.81
2022-08-03T00:21:22.085Z,21.85
2022-08-03T00:24:10.250Z,21.83
2022-08-03T00:26:51.082Z,21.81
2022-08-03T00:29:59.632Z,21.81
2022-08-03T00:32:47.177Z,21.80
2022-08-03T00:35:45.855Z,21.79
2022-08-03T00:38:34.055Z,21.85
2022-08-03T00:41:22.217Z,21.86
2022-08-03T00:44:10.067Z,21.87
2022-08-03T00:46:58.254Z,21.83
2022-08-03T00:49:42.083Z,21.76
2022-08-03T00:52:30.310Z,21.75
2022-08-03T00:55:13.022Z,21.79
2022-08-03T00:58:02.048Z,21.82
2022-08-03T01:00:45.368Z,21.83
2022-08-03T01:03:33.001Z,21.86
2022-08-03T01:06:23.228Z,21.89
2022-08-03T01:09:18.993Z,21.92
2022-08-03T01:12:09.382Z,21.96
2022-08-03T01:15:03.089Z,21.95
2022-08-03T01:17:51.418Z,21.95
2022-08-03T01:20:41.984Z,21.98
2022-08-03T01:23:48.992Z,21.99
2022-08-03T01:27:07.960Z,22.00
2022-08-03T01:30:15.452Z,21.97
2022-08-03T01:33:08.446Z,22.02
2022-08-03T01:35:54.299Z,22.03
2022-08-03T01:38:46.069Z,22.01
2022-08-03T01:41:32.175Z,22.03
2022-08-03T01:44:29.713Z,22.04
2022-08-03T01:47:14.162Z,22.04
2022-08-03T01:50:04.190Z,22.02
2022-08-03T01:52:48.212Z,22.04
2022-08-03T01:55:39.963Z,22.04
2022-08-03T01:58:31.998Z,22.02
2022-08-03T02:01:23.981Z,22.01
2022-08-03T02:04:08.155Z,22.05
2022-08-03T02:07:00.863Z,22.02
2022-08-03T02:09:46.502Z,22.02
2022-08-03T02:12:36.933Z,22.01
2022-08-03T02:15:26.912Z,22.03
2022-08-03T02:18:10.958Z,21.98
2022-08-03T02:21:01.899Z,22.01
2022-08-03T02:23:59.573Z,22.03
2022-08-03T02:26:44.883Z,22.06
2022-08-03T02:29:38.635Z,21.98
2022-08-03T02:32:28.016Z,21.88
2022-08-03T02:35:13.987Z,21.81
2022-08-03T02:38:06.884Z,21.82
2022-08-03T02:40:51.116Z,21.81
2022-08-03T02:44:06.722Z,21.87
2022-08-03T02:46:53.870Z,21.75
2022-08-03T02:49:51.025Z,21.67
2022-08-03T02:52:35.846Z,21.66
2022-08-03T02:55:29.078Z,21.63
2022-08-03T02:58:10.842Z,21.64
2022-08-03T03:00:54.879Z,21.63
2022-08-03T03:03:44.874Z,21.66
2022-08-03T03:06:34.040Z,21.69
2022-08-03T03:09:16.827Z,21.69
2022-08-03T03:12:07.048Z,21.67
2022-08-03T03:14:48.830Z,21.70
2022-08-03T03:17:39.371Z,21.75
2022-08-03T03:20:29.717Z,21.74
2022-08-03T03:23:18.826Z,21.76
2022-08-03T03:26:02.315Z,21.76
2022-08-03T03:28:51.825Z,21.67
2022-08-03T03:31:39.867Z,21.62
2022-08-03T03:34:28.836Z,21.58
2022-08-03T03:37:11.094Z,21.49
2022-08-03T03:39:58.825Z,21.52
2022-08-03T03:42:40.009Z,21.59
2022-08-03T03:45:29.877Z,21.67
2022-08-03T03:48:19.861Z,21.71
2022-08-03T03:51:08.765Z,21.65
2022-08-03T03:54:08.832Z,21.59
2022-08-03T03:56:56.780Z,21.57
2022-08-03T03:59:37.976Z,21.54
2022-08-03T04:02:27.749Z,21.57
2022-08-03T04:05:33.756Z,21.55
2022-08-03T04:08:41.449Z,21.58
2022-08-03T04:11:29.288Z,21.59
2022-08-03T04:14:15.598Z,21.59
2022-08-03T04:17:07.755Z,21.56
2022-08-03T04:20:00.955Z,21.45
2022-08-03T04:22:43.824Z,21.47
2022-08-03T04:25:34.968Z,21.51
2022-08-03T04:28:30.885Z,21.49
2022-08-03T04:31:21.860Z,21.48
2022-08-03T04:34:04.005Z,21.45
2022-08-03T04:36:57.753Z,21.39
2022-08-03T04:39:41.065Z,21.36
2022-08-03T04:42:30.693Z,21.33
2022-08-03T04:45:27.719Z,21.24
2022-08-03T04:48:09.775Z,21.26
2022-08-03T04:50:58.708Z,21.30
2022-08-03T04:53:48.925Z,21.34
2022-08-03T04:56:31.708Z,21.37
2022-08-03T04:59:13.953Z,21.35
2022-08-03T05:02:01.836Z,21.36
2022-08-03T05:04:49.882Z,21.34
2022-08-03T05:07:36.265Z,21.31
2022-08-03T05:10:26.643Z,21.35
2022-08-03T05:13:12.039Z,21.34
2022-08-03T05:16:06.682Z,21.30
2022-08-03T05:18:55.689Z,21.32
2022-08-03T05:21:52.707Z,21.32
2022-08-03T05:24:34.428Z,21.33
2022-08-03T05:27:25.668Z,21.39
2022-08-03T05:30:27.263Z,21.41
2022-08-03T05:33:15.637Z,21.38
2022-08-03T05:36:04.544Z,21.38
2022-08-03T05:38:45.981Z,21.40
2022-08-03T05:41:37.036Z,21.43
2022-08-03T05:44:21.094Z,21.51
2022-08-03T05:47:08.609Z,21.54
2022-08-03T05:49:49.800Z,21.61
2022-08-03T05:52:37.712Z,21.70
2022-08-03T05:55:19.781Z,21.71
2022-08-03T05:58:09.628Z,21.70
2022-08-03T06:00:53.778Z,21.77
2022-08-03T06:03:41.671Z,21.72
2022-08-03T06:06:32.463Z,21.71
2022-08-03T06:09:15.397Z,21.73
2022-08-03T06:12:03.583Z,21.77
2022-08-03T06:14:45.436Z,21.87
2022-08-03T06:17:37.736Z,21.89
2022-08-03T06:20:27.540Z,21.89
2022-08-03T06:23:15.914Z,21.94
2022-08-03T06:26:03.796Z,22.02
2022-08-03T06:28:52.758Z,22.08
2022-08-03T06:31:41.549Z,22.12
2022-08-03T06:34:35.662Z,22.10
2022-08-03T06:37:24.786Z,22.08
2022-08-03T06:40:05.606Z,22.14
2022-08-03T06:42:47.681Z,22.20
2022-08-03T06:45:38.699Z,22.28
2022-08-03T06:48:20.237Z,22.38
2022-08-03T06:51:09.522Z,22.44
2022-08-03T06:53:57.638Z,22.40
2022-08-03T06:56:38.743Z,22.42
2022-08-03T07:00:07.598Z,22.41
2022-08-03T07:02:28.532Z,22.37
2022-08-03T07:05:17.528Z,22.43
2022-08-03T07:08:03.255Z,22.49
2022-08-03T07:10:51.505Z,22.54
2022-08-03T07:13:39.497Z,22.52
2022-08-03T07:16:21.625Z,22.49
2022-08-03T07:21:51.221Z,22.62
2022-08-03T07:24:43.631Z,22.75
2022-08-03T07:27:27.003Z,22.68
2022-08-03T07:30:14.485Z,22.71
2022-08-03T07:32:56.267Z,22.74
2022-08-03T07:35:44.493Z,22.82
2022-08-03T07:38:32.689Z,22.86
2022-08-03T07:41:16.428Z,22.94
2022-08-03T07:44:11.505Z,23.02
2022-08-03T07:46:59.539Z,23.08
2022-08-03T07:49:47.791Z,23.16
2022-08-03T07:52:53.482Z,23.24
2022-08-03T07:55:42.457Z,23.33
2022-08-03T07:58:31.662Z,23.38
2022-08-03T08:01:15.205Z,23.45
2022-08-03T08:04:03.722Z,23.48
2022-08-03T08:06:45.443Z,23.79
2022-08-03T08:09:27.173Z,24.35
2022-08-03T08:12:17.975Z,25.61
2022-08-03T08:15:07.943Z,26.32
2022-08-03T08:17:50.423Z,26.52
2022-08-03T08:20:34.889Z,26.71
2022-08-03T08:23:43.468Z,26.69
2022-08-03T08:26:25.409Z,26.42
2022-08-03T08:29:13.633Z,26.36
2022-08-03T08:31:56.381Z,26.73
2022-08-03T08:34:45.521Z,27.93
2022-08-03T08:37:26.612Z,28.20
2022-08-03T08:40:16.388Z,27.87
2022-08-03T08:42:58.894Z,27.55
2022-08-03T08:45:48.536Z,27.26
2022-08-03T08:48:33.610Z,26.95
2022-08-03T08:51:22.363Z,26.54
2022-08-03T08:54:07.299Z,26.52
2022-08-03T08:56:56.468Z,26.54
2022-08-03T08:59:47.963Z,26.55
2022-08-03T09:02:38.421Z,26.51
2022-08-03T09:05:41.394Z,26.58
2022-08-03T09:08:31.350Z,26.69
2022-08-03T09:11:12.816Z,26.79
2022-08-03T09:14:00.381Z,26.90
2022-08-03T09:16:42.555Z,26.96
2022-08-03T09:19:30.343Z,27.16
2022-08-03T09:22:21.580Z,27.77
2022-08-03T09:25:24.264Z,27.95
2022-08-03T09:29:01.755Z,28.96
2022-08-03T09:31:24.332Z,29.46
2022-08-03T09:34:08.527Z,29.09
2022-08-03T09:36:57.889Z,28.94
2022-08-03T09:39:52.321Z,28.90
2022-08-03T09:42:38.164Z,28.90
2022-08-03T09:45:41.314Z,29.31
2022-08-03T09:48:33.308Z,29.97
2022-08-03T09:51:33.144Z,30.48
2022-08-03T09:54:34.524Z,31.39
2022-08-03T09:57:30.667Z,31.24
2022-08-03T10:00:21.297Z,31.04
2022-08-03T10:03:12.519Z,31.07
2022-08-03T10:06:00.329Z,31.10
2022-08-03T10:08:41.487Z,31.19
2022-08-03T10:11:41.640Z,31.00
2022-08-03T10:14:31.841Z,31.25
2022-08-03T10:17:19.446Z,31.47
2022-08-03T10:20:00.497Z,31.29
2022-08-03T10:22:50.262Z,31.11
2022-08-03T10:25:40.255Z,30.99
2022-08-03T10:28:30.234Z,30.91
2022-08-03T10:31:14.527Z,30.91
2022-08-03T10:34:07.364Z,31.00
2022-08-03T10:36:50.450Z,31.34
2022-08-03T10:39:39.219Z,31.55
2022-08-03T10:42:20.426Z,31.38
2022-08-03T10:45:15.237Z,31.40
2022-08-03T10:48:08.219Z,31.17
2022-08-03T10:50:58.210Z,31.41
2022-08-03T10:53:55.018Z,31.71
2022-08-03T10:57:14.302Z,32.10
2022-08-03T11:00:07.443Z,32.08
2022-08-03T11:03:27.254Z,32.01
2022-08-03T11:06:24.738Z,32.11
2022-08-03T11:09:30.211Z,32.39
2022-08-03T11:12:31.425Z,32.47
2022-08-03T11:15:21.203Z,32.39
2022-08-03T11:18:16.412Z,32.07
2022-08-03T11:21:08.292Z,32.08
2022-08-03T11:24:03.105Z,32.00
2022-08-03T11:27:27.153Z,31.96
2022-08-03T11:30:20.191Z,32.27
2022-08-03T11:33:08.922Z,31.92
2022-08-03T11:36:16.191Z,31.64
2022-08-03T11:39:16.578Z,31.74
2022-08-03T11:42:05.162Z,31.64
2022-08-03T11:45:02.137Z,31.41
2022-08-03T11:47:51.619Z,31.11
2022-08-03T11:50:33.398Z,30.81
2022-08-03T11:53:24.155Z,30.86
2022-08-03T11:56:12.548Z,31.04
2022-08-03T11:59:19.893Z,31.14
2022-08-03T12:02:16.891Z,31.20
2022-08-03T12:05:08.138Z,31.24
2022-08-03T12:08:03.273Z,31.14
2022-08-03T12:10:57.152Z,31.10
2022-08-03T12:14:45.595Z,31.12
2022-08-03T12:16:56.222Z,31.43
2022-08-03T12:19:49.318Z,31.25
2022-08-03T12:22:41.114Z,31.13
2022-08-03T12:25:39.580Z,31.13
2022-08-03T12:28:36.794Z,31.40
2022-08-03T12:31:26.270Z,31.39
2022-08-03T12:34:21.097Z,31.39
2022-08-03T12:37:22.142Z,31.48
2022-08-03T12:40:21.371Z,31.42
2022-08-03T12:43:06.146Z,31.36
2022-08-03T12:46:01.270Z,31.31
2022-08-03T12:49:15.329Z,31.61
2022-08-03T12:52:08.170Z,31.83
2022-08-03T12:55:04.321Z,31.78
2022-08-03T12:57:50.047Z,31.55
2022-08-03T13:00:39.076Z,31.55
2022-08-03T13:03:38.891Z,31.60
2022-08-03T13:06:24.658Z,31.57
2022-08-03T13:09:21.090Z,31.65
2022-08-03T13:12:19.043Z,31.61
2022-08-03T13:15:10.031Z,31.39
2022-08-03T13:17:58.232Z,31.05
2022-08-03T13:20:40.025Z,30.93
2022-08-03T13:23:28.022Z,30.83
2022-08-03T13:26:09.250Z,30.93
2022-08-03T13:28:59.015Z,31.19
2022-08-03T13:31:50.501Z,31.40
2022-08-03T13:34:40.009Z,31.43
2022-08-03T13:37:22.478Z,31.41
2022-08-03T13:40:12.112Z,31.52
2022-08-03T13:42:56.203Z,31.31
2022-08-03T13:45:51.238Z,31.06
2022-08-03T13:48:40.994Z,30.81
2022-08-03T13:51:29.168Z,30.54
2022-08-03T13:54:09.977Z,30.17
2022-08-03T13:57:00.763Z,29.89
2022-08-03T13:59:59.969Z,29.53
2022-08-03T14:02:49.161Z,29.63
2022-08-03T14:05:31.887Z,29.72
2022-08-03T14:08:19.967Z,29.90
2022-08-03T14:11:08.067Z,29.85
2022-08-03T14:13:49.670Z,29.60
2022-08-03T14:16:37.428Z,29.46
2022-08-03T14:19:21.349Z,29.33
2022-08-03T14:22:13.128Z,29.33
2022-08-03T14:25:01.256Z,29.35
2022-08-03T14:27:44.966Z,29.22
2022-08-03T14:30:26.702Z,29.17
2022-08-03T14:33:15.007Z,29.06
2022-08-03T14:36:04.919Z,29.10
2022-08-03T14:38:53.057Z,29.14
2022-08-03T14:41:41.140Z,29.07
2022-08-03T14:44:22.943Z,29.01
2022-08-03T14:47:11.127Z,28.91
2022-08-03T14:50:37.035Z,28.65
2022-08-03T14:52:56.222Z,28.40
2022-08-03T14:55:49.552Z,28.28
2022-08-03T14:58:38.181Z,28.00
2022-08-03T15:02:04.485Z,27.73
2022-08-03T15:04:22.740Z,27.55
2022-08-03T15:07:10.915Z,27.43
2022-08-03T15:10:02.273Z,27.27
2022-08-03T15:12:51.917Z,27.07
2022-08-03T15:15:33.103Z,27.08
2022-08-03T15:18:21.907Z,27.04
2022-08-03T15:21:20.817Z,26.96
2022-08-03T15:24:19.116Z,26.90
2022-08-03T15:27:01.937Z,26.97
2022-08-03T15:30:07.562Z,26.98
2022-08-03T15:32:57.973Z,26.92
2022-08-03T15:35:39.716Z,26.88
2022-08-03T15:38:29.857Z,26.79
2022-08-03T15:41:24.848Z,26.86
2022-08-03T15:44:14.863Z,26.78
2022-08-03T15:47:03.063Z,26.69
2022-08-03T15:49:43.859Z,26.67
2022-08-03T15:52:31.831Z,26.64
2022-08-03T15:55:15.576Z,26.64
2022-08-03T15:59:03.434Z,26.58
2022-08-03T16:01:08.107Z,26.75
2022-08-03T16:03:55.879Z,26.78
2022-08-03T16:06:37.018Z,26.80
2022-08-03T16:09:43.213Z,26.70
2022-08-03T16:12:25.025Z,26.63
2022-08-03T16:15:14.818Z,26.74
2022-08-03T16:18:04.823Z,27.07
2022-08-03T16:20:53.007Z,27.31
2022-08-03T16:23:34.812Z,27.38
2022-08-03T16:26:22.776Z,27.29
2022-08-03T16:29:23.091Z,27.14
2022-08-03T16:32:11.998Z,27.02
2022-08-03T16:34:54.806Z,27.02
2022-08-03T16:37:50.797Z,27.07
2022-08-03T16:40:44.769Z,27.23
2022-08-03T16:43:26.800Z,27.36
2022-08-03T16:46:14.764Z,27.17
2022-08-03T16:49:02.991Z,27.30
2022-08-03T16:51:50.278Z,27.29
2022-08-03T16:54:38.983Z,27.23
2022-08-03T16:57:57.818Z,27.21
2022-08-03T17:00:34.149Z,27.12
2022-08-03T17:03:27.810Z,27.00
2022-08-03T17:06:24.988Z,27.00
2022-08-03T17:09:25.749Z,27.06
2022-08-03T17:12:13.731Z,27.13
2022-08-03T17:14:55.605Z,27.23
2022-08-03T17:17:47.593Z,27.23
2022-08-03T17:20:42.697Z,27.05
2022-08-03T17:23:45.737Z,26.88
2022-08-03T17:26:36.742Z,26.60
2022-08-03T17:29:29.821Z,26.49
2022-08-03T17:32:16.277Z,26.36
2022-08-03T17:35:06.010Z,26.24
2022-08-03T17:38:03.034Z,25.83
2022-08-03T17:40:48.166Z,25.35
2022-08-03T17:44:14.377Z,24.92
2022-08-03T17:46:50.722Z,24.54
2022-08-03T17:49:33.127Z,24.37
2022-08-03T17:52:35.706Z,24.10
2022-08-03T17:55:55.379Z,23.92
2022-08-03T17:58:54.951Z,23.65
2022-08-03T18:02:22.231Z,23.54
2022-08-03T18:05:22.139Z,23.25
2022-08-03T18:08:10.966Z,23.18
2022-08-03T18:11:14.644Z,23.07
2022-08-03T18:14:16.320Z,22.96
2022-08-03T18:17:02.495Z,22.84
2022-08-03T18:20:02.082Z,22.75
2022-08-03T18:22:47.648Z,22.60
2022-08-03T18:25:38.273Z,22.61
2022-08-03T18:28:34.667Z,22.48
2022-08-03T18:31:59.556Z,22.46
2022-08-03T18:34:33.177Z,22.37
2022-08-03T18:37:15.903Z,22.33
2022-08-03T18:40:07.382Z,22.32
2022-08-03T18:42:55.713Z,22.32
2022-08-03T18:45:55.854Z,22.25
2022-08-03T18:48:53.581Z,22.26
2022-08-03T18:51:43.461Z,22.33
2022-08-03T18:54:45.556Z,22.30
2022-08-03T18:57:34.819Z,22.38
2022-08-03T19:00:42.403Z,22.39
2022-08-03T19:06:47.582Z,22.33
2022-08-03T19:09:44.683Z,22.29
2022-08-03T19:12:37.383Z,22.30
2022-08-03T19:15:36.550Z,22.35
2022-08-03T19:18:26.554Z,22.34
2022-08-03T19:21:15.710Z,22.31
2022-08-03T19:24:10.447Z,22.21
2022-08-03T19:27:02.581Z,22.19
2022-08-03T19:29:58.719Z,22.03
2022-08-03T19:32:48.229Z,21.93
2022-08-03T19:35:51.595Z,21.85
2022-08-03T19:38:36.614Z,21.78
2022-08-03T19:41:27.523Z,21.72
2022-08-03T19:44:19.914Z,21.72
2022-08-03T19:47:17.051Z,21.65
2022-08-03T19:50:05.954Z,21.59
2022-08-03T19:53:04.597Z,21.53
2022-08-03T19:55:55.600Z,21.44
2022-08-03T19:58:39.579Z,21.40
2022-08-03T20:01:28.256Z,21.35
2022-08-03T20:04:10.619Z,21.31
2022-08-03T20:07:03.488Z,21.26
2022-08-03T20:09:56.317Z,21.24
2022-08-03T20:12:40.495Z,21.25
2022-08-03T20:15:32.132Z,21.24
2022-08-03T20:18:16.878Z,21.19
2022-08-03T20:21:14.874Z,21.16
2022-08-03T20:24:23.282Z,21.15
2022-08-03T20:27:13.470Z,21.12
2022-08-03T20:30:07.353Z,21.12
2022-08-03T20:32:56.688Z,21.10
2022-08-03T20:35:37.493Z,21.09
2022-08-03T20:38:27.057Z,21.03
2022-08-03T20:41:09.680Z,20.97
2022-08-03T20:43:57.710Z,20.93
2022-08-03T20:47:00.292Z,20.90
2022-08-03T20:49:50.508Z,20.84
2022-08-03T20:52:31.694Z,20.80
2022-08-03T20:55:20.502Z,20.74
2022-08-03T20:58:28.440Z,20.70
2022-08-03T21:01:16.636Z,20.66
2022-08-03T21:03:58.553Z,20.65
2022-08-03T21:06:54.253Z,20.60
2022-08-03T21:09:44.068Z,20.58
2022-08-03T21:12:47.666Z,20.55
2022-08-03T21:13:08.590Z,22.39
2022-08-03T21:16:11.321Z,20.58
2022-08-03T21:18:51.708Z,20.55
2022-08-03T21:21:35.565Z,20.57
2022-08-03T21:24:27.855Z,20.57
2022-08-03T21:27:09.504Z,20.60
2022-08-03T21:29:53.105Z,20.59
2022-08-03T21:32:46.459Z,20.58
2022-08-03T21:35:28.660Z,20.57
2022-08-03T21:38:30.107Z,20.50
2022-08-03T21:41:20.391Z,20.52
2022-08-03T21:44:02.574Z,20.59
2022-08-03T21:46:51.348Z,20.57
2022-08-03T21:50:07.021Z,20.56
2022-08-03T21:52:54.355Z,20.53
2022-08-03T21:55:45.364Z,20.59
2022-08-03T21:58:33.275Z,20.59
2022-08-03T22:01:23.447Z,20.67
2022-08-03T22:04:45.864Z,20.66
2022-08-03T22:07:16.398Z,20.63
2022-08-03T22:10:07.321Z,20.65
2022-08-03T22:12:49.735Z,20.66
2022-08-03T22:15:40.330Z,20.68
2022-08-03T22:18:29.293Z,20.70
2022-08-03T22:21:28.025Z,20.69
2022-08-03T22:24:18.294Z,20.62
2022-08-03T22:27:21.459Z,20.55
2022-08-03T22:30:12.120Z,20.50
2022-08-03T22:33:11.297Z,20.45
2022-08-03T22:35:59.391Z,20.39
2022-08-03T22:38:41.952Z,20.32
2022-08-03T22:41:31.285Z,20.30
2022-08-03T22:44:19.670Z,20.21
2022-08-03T22:47:07.301Z,20.19
2022-08-03T22:50:30.770Z,20.17
2022-08-03T22:53:02.300Z,20.11
2022-08-03T22:55:44.518Z,20.08
2022-08-03T22:58:33.287Z,20.00
2022-08-03T23:01:16.508Z,19.93
2022-08-03T23:04:10.260Z,19.89
2022-08-03T23:07:05.243Z,19.90
2022-08-03T23:09:50.143Z,19.87
2022-08-03T23:12:39.272Z,19.86
2022-08-03T23:15:21.688Z,19.82
2022-08-03T23:18:11.232Z,19.81
2022-08-03T23:21:01.289Z,19.80
2022-08-03T23:23:53.492Z,19.82
2022-08-03T23:26:42.209Z,19.84
2022-08-03T23:29:24.416Z,19.84
2022-08-03T23:32:14.259Z,19.84
2022-08-03T23:35:23.314Z,19.85
2022-08-03T23:38:33.208Z,19.73
2022-08-03T23:41:17.406Z,19.72
2022-08-03T23:44:07.259Z,19.71
2022-08-03T23:46:55.411Z,19.69
2022-08-03T23:49:36.173Z,19.65
2022-08-03T23:52:36.169Z,19.57
2022-08-03T23:55:27.397Z,19.54
2022-08-03T23:58:27.186Z,19.50
